»·PEaware :: N9539S KFDW-KFLO

N9539S :: KFDW-KFLO

FLIGHT INFORMATION

Flight Status: Arrived
Operator: Privately registered:
United States
More flights under this callsign
Pilot: Matt M. (27460)
Aircraft: BELLANCA AIRCRAFT CHAMP - CITABRIA
(CH7A)
More flights by this aircraft type
Origin: KFDW Fairfield Co
United States
Destination: KFLO Florence Regl
United States
More flights between these airports :: More routes between these airports
Route: FLO
File this flight plan on PilotEdge
Remarks:
Altitude:
(Current/Filed)
3,000ft
Speed:
(Current/Filed)
80kts
Departed: 03-Jan-20 07:49 AM
Arrived: 03-Jan-20 09:01 AM
Distance/Time
Traveled:
1508nm/1:12
Distance/Time
To Go:
Arrived

Flight Plot

Page will automatically refresh every two minutes.

Flight plan parsing failed; only flown route is shown


Map Options




Map Legend


Flown Route
Filed Route
Departure Airport
Arrival Airport
Navaid (VOR, NDB)
Fix

Horizontal Profiles

Position Reports

Time Latitude Longitude Heading Altitude Ground
Speed
03-Jan-20 07:33 34.320678 -81.103847 218 581ft 0kts
03-Jan-20 07:34 34.320677 -81.103848 218 581ft 0kts
03-Jan-20 07:35 34.320677 -81.103848 218 581ft 0kts
03-Jan-20 07:36 34.320677 -81.103848 218 581ft 0kts
03-Jan-20 07:37 34.320676 -81.103848 218 581ft 0kts
03-Jan-20 07:38 34.320676 -81.103849 218 581ft 0kts
03-Jan-20 07:39 34.320675 -81.103849 218 581ft 0kts
03-Jan-20 07:40 34.320675 -81.103850 218 581ft 0kts
03-Jan-20 07:41 34.320674 -81.103850 218 581ft 0kts
03-Jan-20 07:42 34.320674 -81.103851 218 581ft 0kts
03-Jan-20 07:43 34.320673 -81.103851 218 581ft 0kts
03-Jan-20 07:44 34.320673 -81.103852 218 581ft 0kts
03-Jan-20 07:45 34.320673 -81.103852 218 581ft 0kts
03-Jan-20 07:46 34.320672 -81.103853 218 581ft 0kts
03-Jan-20 07:47 34.320672 -81.103853 218 581ft 0kts
03-Jan-20 07:48 34.317757 -81.106645 215 582ft 70kts
03-Jan-20 07:49 34.299934 -81.110713 136 1379ft 82kts
03-Jan-20 07:50 34.300767 -81.082500 82 2114ft 103kts
03-Jan-20 07:51 34.310612 -81.048200 92 2790ft 108kts
03-Jan-20 07:52 34.320842 -81.010016 99 3034ft 119kts
03-Jan-20 07:53 34.320296 -80.970817 103 3037ft 115kts
03-Jan-20 07:54 34.317567 -80.930554 110 3065ft 122kts
03-Jan-20 07:55 34.313617 -80.888979 108 3036ft 125kts
03-Jan-20 07:56 34.311252 -80.846868 105 3060ft 126kts
03-Jan-20 07:57 34.311127 -80.804013 99 3061ft 129kts
03-Jan-20 07:58 34.313993 -80.760012 93 2983ft 136kts
03-Jan-20 07:59 34.319002 -80.715437 104 2927ft 129kts
03-Jan-20 08:00 34.309925 -80.676800 123 3005ft 113kts
03-Jan-20 08:01 34.300633 -80.639365 120 3070ft 118kts
03-Jan-20 08:02 34.292575 -80.599979 111 3051ft 126kts
03-Jan-20 08:03 34.292442 -80.556619 108 3047ft 127kts
03-Jan-20 08:04 34.293183 -80.513070 96 3032ft 131kts
03-Jan-20 08:05 34.290142 -80.470844 102 2995ft 129kts
03-Jan-20 08:06 34.290813 -80.427277 105 3020ft 127kts
03-Jan-20 08:07 34.287481 -80.385128 109 3017ft 126kts
03-Jan-20 08:08 34.285401 -80.342134 104 3005ft 129kts
03-Jan-20 08:09 34.285697 -80.298518 101 2992ft 131kts
03-Jan-20 08:10 34.286682 -80.254776 104 3022ft 128kts
03-Jan-20 08:11 34.284199 -80.212437 112 3062ft 124kts
03-Jan-20 08:12 34.278252 -80.171500 119 3085ft 121kts
03-Jan-20 08:13 34.269658 -80.131266 112 2994ft 126kts
03-Jan-20 08:14 34.265370 -80.089277 111 2996ft 125kts
03-Jan-20 08:15 34.261333 -80.049375 111 2996ft 126kts
03-Jan-20 08:16 34.257086 -80.007246 111 2996ft 126kts
03-Jan-20 08:17 34.254017 -79.964743 99 3001ft 132kts
03-Jan-20 08:18 34.254999 -79.920818 103 2998ft 130kts
03-Jan-20 08:19 34.255052 -79.892012 104 2999ft 129kts
03-Jan-20 08:20 34.254015 -79.867354 109 3000ft 127kts
03-Jan-20 08:21 34.250992 -79.824514 109 3000ft 128kts
03-Jan-20 08:22 34.247299 -79.781882 113 3002ft 126kts
03-Jan-20 08:23 34.242259 -79.739981 113 3002ft 126kts
03-Jan-20 08:24 34.237216 -79.697991 113 3000ft 126kts
03-Jan-20 08:25 34.233549 -79.655437 110 3000ft 127kts
03-Jan-20 08:26 34.253842 -79.619423 34 3006ft 146kts
03-Jan-20 08:27 34.286772 -79.587691 46 2667ft 158kts
03-Jan-20 08:28 34.320196 -79.556957 0 2051ft 145kts
03-Jan-20 08:29 34.358063 -79.551454 11 1985ft 136kts
03-Jan-20 08:30 34.359477 -79.521544 185 2012ft 89kts
03-Jan-20 08:31 34.334379 -79.519858 210 1998ft 86kts
03-Jan-20 08:32 34.315628 -79.538085 219 2001ft 86kts
03-Jan-20 08:33 34.300278 -79.560490 231 2001ft 86kts
03-Jan-20 08:34 34.285894 -79.583686 229 2001ft 86kts
03-Jan-20 08:35 34.273999 -79.602034 229 2001ft 86kts
03-Jan-20 08:36 34.258505 -79.625657 226 1732ft 99kts
03-Jan-20 08:37 34.238136 -79.652641 226 1118ft 114kts
03-Jan-20 08:38 34.216675 -79.677602 225 1084ft 104kts
03-Jan-20 08:39 34.196215 -79.701572 202 1166ft 98kts
03-Jan-20 08:40 34.194368 -79.680685 21 1782ft 104kts
03-Jan-20 08:41 34.223684 -79.661606 25 1997ft 137kts
03-Jan-20 08:42 34.238817 -79.625736 110 1997ft 123kts
03-Jan-20 08:43 34.231308 -79.585643 118 1987ft 121kts
03-Jan-20 08:44 34.222001 -79.546485 119 1988ft 121kts
03-Jan-20 08:45 34.211275 -79.508094 121 1989ft 120kts
03-Jan-20 08:46 34.201915 -79.468998 116 2000ft 122kts
03-Jan-20 08:47 34.194726 -79.428617 113 2001ft 123kts
03-Jan-20 08:48 34.216114 -79.406351 316 2003ft 115kts
03-Jan-20 08:49 34.218968 -79.432804 250 2004ft 90kts
03-Jan-20 08:50 34.218968 -79.432804 250 2004ft 90kts
03-Jan-20 08:51 34.214369 -79.462153 252 2000ft 91kts
03-Jan-20 08:52 34.211768 -79.492808 255 1999ft 92kts
03-Jan-20 08:53 34.208945 -79.525344 254 1653ft 104kts
03-Jan-20 08:54 34.204676 -79.557898 250 1598ft 93kts
03-Jan-20 08:55 34.199856 -79.589082 254 1598ft 95kts
03-Jan-20 08:56 34.195194 -79.621513 264 1441ft 101kts
03-Jan-20 08:57 34.192762 -79.654597 260 1121ft 100kts
03-Jan-20 08:58 34.189871 -79.686853 260 569ft 90kts
03-Jan-20 08:59 34.186957 -79.716973 258 152ft 62kts
03-Jan-20 09:00 34.186611 -79.725773 339 152ft 7kts
03-Jan-20 09:01 34.190648 -79.727109 284 152ft 19kts
03-Jan-20 09:02 34.192750 -79.728493 102 152ft 0kts
03-Jan-20 09:03 34.192750 -79.728492 103 152ft 0kts
03-Jan-20 09:04 40.866427 -111.928567 269 5717ft 0kts
03-Jan-20 09:05 40.866427 -111.928567 269 4238ft 0kts
03-Jan-20 09:06 40.866427 -111.928567 269 4238ft 0kts
03-Jan-20 09:07 40.866427 -111.928568 269 4238ft 0kts
03-Jan-20 09:08 40.866427 -111.928568 269 4238ft 0kts
03-Jan-20 09:09 40.866427 -111.928568 269 4238ft 0kts
03-Jan-20 09:10 40.866427 -111.928569 269 4238ft 0kts
03-Jan-20 09:11 40.866427 -111.928569 269 4238ft 0kts
03-Jan-20 09:12 40.866427 -111.928570 269 4238ft 0kts
03-Jan-20 09:13 40.866427 -111.928570 269 4238ft 0kts
03-Jan-20 09:14 40.866427 -111.928570 269 4238ft 0kts

Navigation Log

Ident Type
Flight plan parsing failed, navigation log unavailable